sensor_id;sensor_type;location;lat;lon;timestamp;pressure;altitude;pressure_sealevel;temperature;humidity
32330;BME280;18807;52.434;13.238;2023-05-11T00:01:33;75677.78;;;-142.05;94.95
32330;BME280;18807;52.434;13.238;2023-05-11T00:09:07;75694.13;;;-142.05;96.63
32330;BME280;18807;52.434;13.238;2023-05-11T00:16:44;75706.34;;;-142.05;99.33
32330;BME280;18807;52.434;13.238;2023-05-11T00:24:18;75722.69;;;-142.05;100.00
32330;BME280;18807;52.434;13.238;2023-05-11T00:31:53;75745.13;;;-142.05;100.00
32330;BME280;18807;52.434;13.238;2023-05-11T00:39:27;75757.38;;;-142.05;100.00
32330;BME280;18807;52.434;13.238;2023-05-11T00:47:03;75763.50;;;-142.05;100.00
32330;BME280;18807;52.434;13.238;2023-05-11T00:54:38;75779.81;;;-142.05;100.00
32330;BME280;18807;52.434;13.238;2023-05-11T01:02:14;75796.16;;;-142.05;100.00
32330;BME280;18807;52.434;13.238;2023-05-11T01:09:54;75818.59;;;-142.05;100.00
32330;BME280;18807;52.434;13.238;2023-05-11T01:17:43;75834.94;;;-142.05;100.00
32330;BME280;18807;52.434;13.238;2023-05-11T01:25:30;75849.22;;;-142.05;100.00
32330;BME280;18807;52.434;13.238;2023-05-11T01:33:10;75861.47;;;-142.05;100.00
32330;BME280;18807;52.434;13.238;2023-05-11T01:41:11;75875.75;;;-142.05;100.00
32330;BME280;18807;52.434;13.238;2023-05-11T01:48:50;75902.28;;;-142.05;100.00
32330;BME280;18807;52.434;13.238;2023-05-11T01:56:25;75920.63;;;-142.05;100.00
32330;BME280;18807;52.434;13.238;2023-05-11T02:04:03;75947.16;;;-142.05;100.00
32330;BME280;18807;52.434;13.238;2023-05-11T02:11:39;75951.25;;;-142.05;100.00
32330;BME280;18807;52.434;13.238;2023-05-11T02:19:17;75967.59;;;-142.05;100.00
32330;BME280;18807;52.434;13.238;2023-05-11T02:26:52;75979.81;;;-142.05;100.00
32330;BME280;18807;52.434;13.238;2023-05-11T02:34:31;75994.13;;;-142.05;100.00
32330;BME280;18807;52.434;13.238;2023-05-11T02:42:13;76004.31;;;-142.05;100.00
32330;BME280;18807;52.434;13.238;2023-05-11T02:49:50;76014.53;;;-142.05;100.00
32330;BME280;18807;52.434;13.238;2023-05-11T02:57:26;76032.88;;;-142.05;100.00
32330;BME280;18807;52.434;13.238;2023-05-11T03:05:01;76049.22;;;-142.05;100.00
32330;BME280;18807;52.434;13.238;2023-05-11T03:12:36;76059.41;;;-142.05;100.00
32330;BME280;18807;52.434;13.238;2023-05-11T03:20:12;76069.63;;;-142.05;100.00
32330;BME280;18807;52.434;13.238;2023-05-11T03:27:49;76079.81;;;-142.05;100.00
32330;BME280;18807;52.434;13.238;2023-05-11T03:35:44;76096.16;;;-142.05;100.00
32330;BME280;18807;52.434;13.238;2023-05-11T03:43:20;76092.06;;;-142.05;100.00
32330;BME280;18807;52.434;13.238;2023-05-11T03:51:13;76083.91;;;-142.05;100.00
32330;BME280;18807;52.434;13.238;2023-05-11T03:59:06;76092.06;;;-142.05;100.00
32330;BME280;18807;52.434;13.238;2023-05-11T04:06:42;76096.16;;;-142.05;100.00
32330;BME280;18807;52.434;13.238;2023-05-11T04:14:16;76096.16;;;-142.05;100.00
32330;BME280;18807;52.434;13.238;2023-05-11T04:21:52;76122.69;;;-142.05;100.00
32330;BME280;18807;52.434;13.238;2023-05-11T04:29:26;76126.78;;;-142.05;100.00
32330;BME280;18807;52.434;13.238;2023-05-11T04:37:01;76126.78;;;-142.05;100.00
32330;BME280;18807;52.434;13.238;2023-05-11T04:44:38;76126.78;;;-142.05;100.00
32330;BME280;18807;52.434;13.238;2023-05-11T04:52:14;76114.53;;;-142.05;88.45
32330;BME280;18807;52.434;13.238;2023-05-11T04:59:48;76102.28;;;-142.05;85.59
32330;BME280;18807;52.434;13.238;2023-05-11T05:07:24;76079.81;;;-142.05;80.65
32330;BME280;18807;52.434;13.238;2023-05-11T05:14:58;76049.22;;;-142.05;79.53
32330;BME280;18807;52.434;13.238;2023-05-11T05:22:33;76022.69;;;-142.05;76.05
32330;BME280;18807;52.434;13.238;2023-05-11T05:30:08;75990.03;;;-142.05;72.57
32330;BME280;18807;52.434;13.238;2023-05-11T05:37:44;75963.50;;;-142.05;72.07
32330;BME280;18807;52.434;13.238;2023-05-11T05:45:18;75922.69;;;-142.05;69.58
32330;BME280;18807;52.434;13.238;2023-05-11T05:52:54;75906.34;;;-142.05;68.12
32330;BME280;18807;52.434;13.238;2023-05-11T06:00:28;75875.75;;;-142.05;66.39
32330;BME280;18807;52.434;13.238;2023-05-11T06:08:04;75843.09;;;-142.05;65.61
32330;BME280;18807;52.434;13.238;2023-05-11T06:15:42;75818.59;;;-142.05;63.44
32330;BME280;18807;52.434;13.238;2023-05-11T06:23:18;75779.81;;;-142.05;61.03
32330;BME280;18807;52.434;13.238;2023-05-11T06:30:55;75734.94;;;-142.05;60.35
32330;BME280;18807;52.434;13.238;2023-05-11T06:38:31;75708.41;;;-142.05;59.60
32330;BME280;18807;52.434;13.238;2023-05-11T06:46:06;75677.78;;;-142.05;57.75
32330;BME280;18807;52.434;13.238;2023-05-11T06:53:43;75641.06;;;-142.05;58.96
32330;BME280;18807;52.434;13.238;2023-05-11T07:01:17;75592.09;;;-142.05;55.86
32330;BME280;18807;52.434;13.238;2023-05-11T07:08:52;75541.06;;;-142.05;54.59
32330;BME280;18807;52.434;13.238;2023-05-11T07:16:26;75516.56;;;-142.05;53.94
32330;BME280;18807;52.434;13.238;2023-05-11T07:24:02;75469.66;;;-142.05;51.85
32330;BME280;18807;52.434;13.238;2023-05-11T07:31:36;75404.34;;;-142.05;50.42
32330;BME280;18807;52.434;13.238;2023-05-11T07:39:12;75396.19;;;-142.05;49.86
32330;BME280;18807;52.434;13.238;2023-05-11T07:46:47;75339.06;;;-142.05;48.56
32330;BME280;18807;52.434;13.238;2023-05-11T07:54:23;75298.25;;;-142.05;46.87
32330;BME280;18807;52.434;13.238;2023-05-11T08:01:58;75249.28;;;-142.05;46.64
32330;BME280;18807;52.434;13.238;2023-05-11T08:09:33;75186.03;;;-142.05;43.91
32330;BME280;18807;52.434;13.238;2023-05-11T08:17:07;75118.69;;;-142.05;43.38
32330;BME280;18807;52.434;13.238;2023-05-11T08:24:43;75094.19;;;-142.05;42.96
32330;BME280;18807;52.434;13.238;2023-05-11T08:32:18;75028.91;;;-142.05;40.08
32330;BME280;18807;52.434;13.238;2023-05-11T08:39:54;75012.59;;;-142.05;41.45
32330;BME280;18807;52.434;13.238;2023-05-11T08:47:28;74969.75;;;-142.05;40.16
32330;BME280;18807;52.434;13.238;2023-05-11T08:55:05;74900.38;;;-142.05;41.74
32330;BME280;18807;52.434;13.238;2023-05-11T09:02:40;74853.44;;;-142.05;39.46
32330;BME280;18807;52.434;13.238;2023-05-11T09:10:17;74831.00;;;-142.05;38.28
32330;BME280;18807;52.434;13.238;2023-05-11T09:17:51;74808.56;;;-142.05;37.81
32330;BME280;18807;52.434;13.238;2023-05-11T09:25:29;74790.19;;;-142.05;38.26
32330;BME280;18807;52.434;13.238;2023-05-11T09:33:08;74729.00;;;-142.05;37.13
32330;BME280;18807;52.434;13.238;2023-05-11T09:40:51;74694.31;;;-142.05;36.85
32330;BME280;18807;52.434;13.238;2023-05-11T09:48:27;74720.84;;;-142.05;35.23
32330;BME280;18807;52.434;13.238;2023-05-11T09:56:03;74694.31;;;-142.05;34.63
32330;BME280;18807;52.434;13.238;2023-05-11T10:03:45;74731.03;;;-142.05;34.19
32330;BME280;18807;52.434;13.238;2023-05-11T10:11:21;74755.53;;;-142.05;34.82
32330;BME280;18807;52.434;13.238;2023-05-11T10:18:58;74704.50;;;-142.05;34.14
32330;BME280;18807;52.434;13.238;2023-05-11T10:26:34;74718.78;;;-142.05;33.83
32330;BME280;18807;52.434;13.238;2023-05-11T10:34:09;74702.47;;;-142.05;33.18
32330;BME280;18807;52.434;13.238;2023-05-11T10:41:55;74722.88;;;-142.05;33.41
32330;BME280;18807;52.434;13.238;2023-05-11T10:49:45;74718.78;;;-142.05;32.54
32330;BME280;18807;52.434;13.238;2023-05-11T10:57:35;74696.34;;;-142.05;32.59
32330;BME280;18807;52.434;13.238;2023-05-11T11:05:13;74729.00;;;-142.05;33.23
32330;BME280;18807;52.434;13.238;2023-05-11T11:13:07;74714.72;;;-142.05;33.04
32330;BME280;18807;52.434;13.238;2023-05-11T11:20:45;74684.13;;;-142.05;32.70
32330;BME280;18807;52.434;13.238;2023-05-11T11:28:21;74722.88;;;-142.05;32.98
32330;BME280;18807;52.434;13.238;2023-05-11T11:35:56;74739.19;;;-142.05;33.88
32330;BME280;18807;52.434;13.238;2023-05-11T11:43:43;74818.75;;;-142.05;33.70
32330;BME280;18807;52.434;13.238;2023-05-11T11:51:18;74845.28;;;-142.05;33.22
32330;BME280;18807;52.434;13.238;2023-05-11T11:58:57;74835.09;;;-142.05;33.78
32330;BME280;18807;52.434;13.238;2023-05-11T12:06:36;74782.03;;;-142.05;33.00
32330;BME280;18807;52.434;13.238;2023-05-11T12:14:11;74749.41;;;-142.05;32.02
32330;BME280;18807;52.434;13.238;2023-05-11T12:21:46;74731.03;;;-142.05;32.31
32330;BME280;18807;52.434;13.238;2023-05-11T12:29:21;74722.88;;;-142.05;31.27
32330;BME280;18807;52.434;13.238;2023-05-11T12:36:55;74729.00;;;-142.05;31.05
32330;BME280;18807;52.434;13.238;2023-05-11T12:44:33;74753.47;;;-142.05;31.46
32330;BME280;18807;52.434;13.238;2023-05-11T12:52:08;74739.19;;;-142.05;31.38
32330;BME280;18807;52.434;13.238;2023-05-11T13:00:11;74712.69;;;-142.05;31.69
32330;BME280;18807;52.434;13.238;2023-05-11T13:07:45;74684.13;;;-142.05;31.67
32330;BME280;18807;52.434;13.238;2023-05-11T13:15:23;74651.47;;;-142.05;30.60
32330;BME280;18807;52.434;13.238;2023-05-11T13:23:04;74686.16;;;-142.05;30.28
32330;BME280;18807;52.434;13.238;2023-05-11T13:30:41;74692.28;;;-142.05;30.71
32330;BME280;18807;52.434;13.238;2023-05-11T13:38:15;74712.69;;;-142.05;30.35
32330;BME280;18807;52.434;13.238;2023-05-11T13:46:09;74718.78;;;-142.05;30.70
32330;BME280;18807;52.434;13.238;2023-05-11T13:53:45;74755.53;;;-142.05;31.36
32330;BME280;18807;52.434;13.238;2023-05-11T14:01:21;74763.69;;;-142.05;30.52
32330;BME280;18807;52.434;13.238;2023-05-11T14:08:56;74771.84;;;-142.05;30.46
32330;BME280;18807;52.434;13.238;2023-05-11T14:16:31;74788.16;;;-142.05;30.33
32330;BME280;18807;52.434;13.238;2023-05-11T14:24:06;74814.69;;;-142.05;31.00
32330;BME280;18807;52.434;13.238;2023-05-11T14:31:45;74800.41;;;-142.05;31.38
32330;BME280;18807;52.434;13.238;2023-05-11T14:39:19;74786.13;;;-142.05;31.27
32330;BME280;18807;52.434;13.238;2023-05-11T14:46:55;74767.75;;;-142.05;31.57
32330;BME280;18807;52.434;13.238;2023-05-11T14:54:29;74765.72;;;-142.05;30.59
32330;BME280;18807;52.434;13.238;2023-05-11T15:02:04;74741.25;;;-142.05;30.85
32330;BME280;18807;52.434;13.238;2023-05-11T15:09:38;74743.28;;;-142.05;30.16
32330;BME280;18807;52.434;13.238;2023-05-11T15:17:14;74777.97;;;-142.05;30.07
32330;BME280;18807;52.434;13.238;2023-05-11T15:24:48;74771.84;;;-142.05;30.77
32330;BME280;18807;52.434;13.238;2023-05-11T15:32:23;74775.91;;;-142.05;30.56
32330;BME280;18807;52.434;13.238;2023-05-11T15:39:57;74802.44;;;-142.05;30.28
32330;BME280;18807;52.434;13.238;2023-05-11T15:47:33;74837.13;;;-142.05;31.34
32330;BME280;18807;52.434;13.238;2023-05-11T15:55:07;74855.50;;;-142.05;32.09
32330;BME280;18807;52.434;13.238;2023-05-11T16:02:43;74871.81;;;-142.05;32.07
32330;BME280;18807;52.434;13.238;2023-05-11T16:10:18;74896.28;;;-142.05;31.34
32330;BME280;18807;52.434;13.238;2023-05-11T16:17:53;74916.69;;;-142.05;31.71
32330;BME280;18807;52.434;13.238;2023-05-11T16:25:28;74912.63;;;-142.05;32.08
32330;BME280;18807;52.434;13.238;2023-05-11T16:33:20;74935.06;;;-142.05;32.45
32330;BME280;18807;52.434;13.238;2023-05-11T16:40:55;74949.34;;;-142.05;32.29
32330;BME280;18807;52.434;13.238;2023-05-11T16:48:30;74955.47;;;-142.05;32.43
32330;BME280;18807;52.434;13.238;2023-05-11T16:56:04;74961.59;;;-142.05;31.55
32330;BME280;18807;52.434;13.238;2023-05-11T17:03:40;74967.69;;;-142.05;31.50
32330;BME280;18807;52.434;13.238;2023-05-11T17:11:15;74988.09;;;-142.05;31.56
32330;BME280;18807;52.434;13.238;2023-05-11T17:18:50;75002.38;;;-142.05;31.72
32330;BME280;18807;52.434;13.238;2023-05-11T17:26:24;75002.38;;;-142.05;31.99
32330;BME280;18807;52.434;13.238;2023-05-11T17:34:17;75016.66;;;-142.05;32.00
32330;BME280;18807;52.434;13.238;2023-05-11T17:41:53;75037.06;;;-142.05;31.92
32330;BME280;18807;52.434;13.238;2023-05-11T17:49:28;75055.44;;;-142.05;31.86
32330;BME280;18807;52.434;13.238;2023-05-11T17:57:02;75071.75;;;-142.05;32.28
32330;BME280;18807;52.434;13.238;2023-05-11T18:04:53;75100.31;;;-142.05;32.62
32330;BME280;18807;52.434;13.238;2023-05-11T18:12:31;75112.56;;;-142.05;32.56
32330;BME280;18807;52.434;13.238;2023-05-11T18:20:08;75128.88;;;-142.05;32.83
32330;BME280;18807;52.434;13.238;2023-05-11T18:27:42;75145.22;;;-142.05;33.02
32330;BME280;18807;52.434;13.238;2023-05-11T18:35:18;75167.66;;;-142.05;33.22
32330;BME280;18807;52.434;13.238;2023-05-11T18:42:52;75186.03;;;-142.05;33.74
32330;BME280;18807;52.434;13.238;2023-05-11T18:50:29;75202.34;;;-142.05;34.07
32330;BME280;18807;52.434;13.238;2023-05-11T18:58:04;75224.78;;;-142.05;34.00
32330;BME280;18807;52.434;13.238;2023-05-11T19:05:58;75241.09;;;-142.05;34.25
32330;BME280;18807;52.434;13.238;2023-05-11T19:13:33;75263.56;;;-142.05;34.79
32330;BME280;18807;52.434;13.238;2023-05-11T19:21:09;75288.03;;;-142.05;34.85
32330;BME280;18807;52.434;13.238;2023-05-11T19:28:43;75304.38;;;-142.05;35.11
32330;BME280;18807;52.434;13.238;2023-05-11T19:36:19;75318.66;;;-142.05;35.35
32330;BME280;18807;52.434;13.238;2023-05-11T19:43:53;75328.84;;;-142.05;35.66
32330;BME280;18807;52.434;13.238;2023-05-11T19:51:29;75334.97;;;-142.05;35.74
32330;BME280;18807;52.434;13.238;2023-05-11T19:59:03;75359.47;;;-142.05;35.76
32330;BME280;18807;52.434;13.238;2023-05-11T20:06:39;75371.69;;;-142.05;36.12
32330;BME280;18807;52.434;13.238;2023-05-11T20:14:13;75385.97;;;-142.05;36.49
32330;BME280;18807;52.434;13.238;2023-05-11T20:21:48;75392.09;;;-142.05;36.65
32330;BME280;18807;52.434;13.238;2023-05-11T20:29:23;75402.31;;;-142.05;37.02
32330;BME280;18807;52.434;13.238;2023-05-11T20:36:58;75402.31;;;-142.05;36.84
32330;BME280;18807;52.434;13.238;2023-05-11T20:44:32;75420.66;;;-142.05;36.91
32330;BME280;18807;52.434;13.238;2023-05-11T20:52:25;75432.91;;;-142.05;37.25
32330;BME280;18807;52.434;13.238;2023-05-11T21:00:02;75441.06;;;-142.05;37.68
32330;BME280;18807;52.434;13.238;2023-05-11T21:07:41;75457.41;;;-142.05;37.92
32330;BME280;18807;52.434;13.238;2023-05-11T21:15:16;75467.59;;;-142.05;38.25
32330;BME280;18807;52.434;13.238;2023-05-11T21:22:51;75483.94;;;-142.05;38.41
32330;BME280;18807;52.434;13.238;2023-05-11T21:30:25;75496.16;;;-142.05;38.82
32330;BME280;18807;52.434;13.238;2023-05-11T21:38:01;75506.38;;;-142.05;39.07
32330;BME280;18807;52.434;13.238;2023-05-11T21:45:35;75514.53;;;-142.05;39.44
32330;BME280;18807;52.434;13.238;2023-05-11T21:53:10;75524.75;;;-142.05;39.64
32330;BME280;18807;52.434;13.238;2023-05-11T22:00:44;75532.91;;;-142.05;39.76
32330;BME280;18807;52.434;13.238;2023-05-11T22:08:37;75551.28;;;-142.05;40.10
32330;BME280;18807;52.434;13.238;2023-05-11T22:16:11;75557.38;;;-142.05;40.12
32330;BME280;18807;52.434;13.238;2023-05-11T22:23:46;75571.69;;;-142.05;40.02
32330;BME280;18807;52.434;13.238;2023-05-11T22:31:20;75581.88;;;-142.05;40.43
32330;BME280;18807;52.434;13.238;2023-05-11T22:38:55;75598.19;;;-142.05;40.71
32330;BME280;18807;52.434;13.238;2023-05-11T22:47:29;75622.69;;;-142.05;41.40
32330;BME280;18807;52.434;13.238;2023-05-11T22:55:20;75651.25;;;-142.05;41.86
32330;BME280;18807;52.434;13.238;2023-05-11T23:11:16;75681.88;;;-142.05;42.47
32330;BME280;18807;52.434;13.238;2023-05-11T23:18:54;75700.25;;;-142.05;42.95
32330;BME280;18807;52.434;13.238;2023-05-11T23:26:58;75714.53;;;-142.05;43.57
32330;BME280;18807;52.434;13.238;2023-05-11T23:34:31;75730.84;;;-142.05;43.49
32330;BME280;18807;52.434;13.238;2023-05-11T23:42:06;75743.09;;;-142.05;43.50
32330;BME280;18807;52.434;13.238;2023-05-11T23:49:41;75757.38;;;-142.05;43.51
32330;BME280;18807;52.434;13.238;2023-05-11T23:57:17;75763.50;;;-142.05;43.62
